Terminal Aerodrome Forecast
Issued by NWS

Home | Current Version | Previous Version | Text Only | Print | Product List | Glossary On
Versions: 1 2 3 4 5 6 7 8 9 10 11 12 13 14 15 16
000
FTUS44 KLZK 020500
TAFLLQ
TAF
KLLQ 020520Z 0206/0306 VRB03KT P6SM SCT250
     FM020900 17005KT 5SM BR OVC015
     FM021400 18007KT P6SM BKN025 OVC050
     FM021800 19008G16KT P6SM VCTS BKN050CB=

USA.gov is the U.S. government's official web portal to all federal, state and local government web resources and services.